createdAt,value
2022-12-11T00:01:10.514Z,83.47
2022-12-11T00:03:39.151Z,78.57
2022-12-11T00:06:08.657Z,62.23
2022-12-11T00:08:37.043Z,74.30
2022-12-11T00:11:07.735Z,62.30
2022-12-11T00:13:36.832Z,65.37
2022-12-11T00:16:05.421Z,75.27
2022-12-11T00:18:33.185Z,58.27
2022-12-11T00:21:01.577Z,65.50
2022-12-11T00:23:30.016Z,66.47
2022-12-11T00:25:57.809Z,67.57
2022-12-11T00:28:25.618Z,69.80
2022-12-11T00:30:55.212Z,66.17
2022-12-11T00:33:22.961Z,71.60
2022-12-11T00:35:50.804Z,80.93
2022-12-11T00:38:21.923Z,77.57
2022-12-11T00:40:49.942Z,66.67
2022-12-11T00:43:18.000Z,72.13
2022-12-11T00:45:47.787Z,80.57
2022-12-11T00:48:16.855Z,78.67
2022-12-11T00:50:44.656Z,62.50
2022-12-11T00:53:12.437Z,66.07
2022-12-11T00:55:43.355Z,60.60
2022-12-11T00:58:12.296Z,52.77
2022-12-11T01:00:42.072Z,48.60
2022-12-11T01:03:13.866Z,64.17
2022-12-11T01:05:51.490Z,58.53
2022-12-11T01:08:19.499Z,65.97
2022-12-11T01:10:47.715Z,78.40
2022-12-11T01:13:16.035Z,59.37
2022-12-11T01:15:45.577Z,60.73
2022-12-11T01:18:15.824Z,64.33
2022-12-11T01:20:44.949Z,70.10
2022-12-11T01:23:13.881Z,63.47
2022-12-11T01:25:43.068Z,77.07
2022-12-11T01:28:10.976Z,56.70
2022-12-11T01:30:42.237Z,54.43
2022-12-11T01:33:10.843Z,56.37
2022-12-11T01:35:40.175Z,52.10
2022-12-11T01:38:10.450Z,55.83
2022-12-11T01:40:38.241Z,52.40
2022-12-11T01:43:06.027Z,63.13
2022-12-11T01:45:40.586Z,85.17
2022-12-11T01:48:14.415Z,61.10
2022-12-11T01:50:49.061Z,57.43
2022-12-11T01:53:25.008Z,54.23
2022-12-11T01:55:57.165Z,62.67
2022-12-11T01:58:31.234Z,68.23
2022-12-11T02:01:01.154Z,73.50
2022-12-11T02:03:29.044Z,61.87
2022-12-11T02:05:59.652Z,72.27
2022-12-11T02:08:29.737Z,80.97
2022-12-11T02:11:10.096Z,85.77
2022-12-11T02:13:48.293Z,70.70
2022-12-11T02:16:26.466Z,50.57
2022-12-11T02:19:02.910Z,55.33
2022-12-11T02:21:41.046Z,49.93
2022-12-11T02:24:43.133Z,66.30
2022-12-11T02:27:26.584Z,69.23
2022-12-11T02:30:02.745Z,67.53
2022-12-11T02:32:39.650Z,58.77
2022-12-11T02:35:16.140Z,66.33
2022-12-11T02:37:47.941Z,84.33
2022-12-11T02:40:22.822Z,92.33
2022-12-11T02:42:54.968Z,66.57
2022-12-11T02:45:27.370Z,78.97
2022-12-11T02:47:59.858Z,65.67
2022-12-11T02:50:30.164Z,62.07
2022-12-11T02:53:02.397Z,58.43
2022-12-11T02:55:35.442Z,51.47
2022-12-11T02:58:12.703Z,60.97
2022-12-11T03:00:42.091Z,56.37
2022-12-11T03:03:10.021Z,55.77
2022-12-11T03:05:39.040Z,79.23
2022-12-11T03:08:07.224Z,81.40
2022-12-11T03:10:35.033Z,69.80
2022-12-11T03:13:03.866Z,59.67
2022-12-11T03:15:41.701Z,71.50
2022-12-11T03:18:26.018Z,71.63
2022-12-11T03:21:05.682Z,61.33
2022-12-11T03:23:44.093Z,60.70
2022-12-11T03:26:17.141Z,71.57
2022-12-11T03:28:50.991Z,73.97
2022-12-11T03:31:28.252Z,62.50
2022-12-11T03:34:07.424Z,69.03
2022-12-11T03:36:39.090Z,69.93
2022-12-11T03:39:12.492Z,69.67
2022-12-11T03:41:45.423Z,69.27
2022-12-11T03:44:15.758Z,60.47
2022-12-11T03:46:46.306Z,62.80
2022-12-11T03:49:20.788Z,65.77
2022-12-11T03:51:53.383Z,62.13
2022-12-11T03:54:23.077Z,71.37
2022-12-11T03:56:55.356Z,58.87
2022-12-11T03:59:23.618Z,72.00
2022-12-11T04:01:51.675Z,70.20
2022-12-11T04:04:21.197Z,70.67
2022-12-11T04:06:48.973Z,62.53
2022-12-11T04:09:17.091Z,61.77
2022-12-11T04:11:44.957Z,61.40
2022-12-11T04:14:33.315Z,77.00
2022-12-11T04:17:01.946Z,65.20
2022-12-11T04:19:49.568Z,52.37
2022-12-11T04:22:37.269Z,77.63
2022-12-11T04:25:08.477Z,57.73
2022-12-11T04:27:51.527Z,57.90
2022-12-11T04:30:24.680Z,60.93
2022-12-11T04:32:55.571Z,70.57
2022-12-11T04:35:24.610Z,62.23
2022-12-11T04:37:53.331Z,63.57
2022-12-11T04:40:21.396Z,66.03
2022-12-11T04:42:49.383Z,71.07
2022-12-11T04:45:17.421Z,65.27
2022-12-11T04:47:45.289Z,59.83
2022-12-11T04:50:15.535Z,67.33
2022-12-11T04:52:44.762Z,55.43
2022-12-11T04:55:13.430Z,98.93
2022-12-11T04:57:41.811Z,75.17
2022-12-11T05:00:12.966Z,73.83
2022-12-11T05:02:42.740Z,67.47
2022-12-11T05:05:11.815Z,64.67
2022-12-11T05:07:41.904Z,57.03
2022-12-11T05:10:11.359Z,44.97
2022-12-11T05:12:39.141Z,47.77
2022-12-11T05:15:08.617Z,56.13
2022-12-11T05:17:36.633Z,56.93
2022-12-11T05:20:05.483Z,54.93
2022-12-11T05:22:33.561Z,40.70
2022-12-11T05:25:01.386Z,33.13
2022-12-11T05:27:30.715Z,42.57
2022-12-11T05:29:59.657Z,60.50
2022-12-11T05:32:27.557Z,54.43
2022-12-11T05:34:56.183Z,56.67
2022-12-11T05:37:24.192Z,60.30
2022-12-11T05:39:52.026Z,50.07
2022-12-11T05:42:22.849Z,48.73
2022-12-11T05:44:56.442Z,47.55
2022-12-11T05:47:24.241Z,45.53
2022-12-11T05:49:52.111Z,38.80
2022-12-11T05:52:19.953Z,32.87
2022-12-11T05:54:49.232Z,33.10
2022-12-11T05:57:17.164Z,33.00
2022-12-11T05:59:45.209Z,29.73
2022-12-11T06:02:14.372Z,31.17
2022-12-11T06:04:42.353Z,32.97
2022-12-11T06:07:10.125Z,33.53
2022-12-11T06:09:37.880Z,35.17
2022-12-11T06:12:06.025Z,33.47
2022-12-11T06:14:33.818Z,34.23
2022-12-11T06:17:01.668Z,32.97
2022-12-11T06:19:35.108Z,38.30
2022-12-11T06:22:05.136Z,36.80
2022-12-11T06:24:32.989Z,35.83
2022-12-11T06:27:00.809Z,35.57
2022-12-11T06:29:28.584Z,37.40
2022-12-11T06:31:56.496Z,37.13
2022-12-11T06:34:24.257Z,39.93
2022-12-11T06:36:53.309Z,49.10
2022-12-11T06:39:21.090Z,39.60
2022-12-11T06:41:48.840Z,41.67
2022-12-11T06:44:16.523Z,39.47
2022-12-11T06:46:44.381Z,41.07
2022-12-11T06:49:12.043Z,44.73
2022-12-11T06:51:39.813Z,42.00
2022-12-11T06:54:08.935Z,44.40
2022-12-11T06:56:36.831Z,45.07
2022-12-11T06:59:07.430Z,40.30
2022-12-11T07:01:35.590Z,36.10
2022-12-11T07:04:03.354Z,40.77
2022-12-11T07:06:31.098Z,38.77
2022-12-11T07:08:59.059Z,42.43
2022-12-11T07:11:28.288Z,41.37
2022-12-11T07:13:58.708Z,36.10
2022-12-11T07:16:27.298Z,43.23
2022-12-11T07:18:55.365Z,41.63
2022-12-11T07:21:23.315Z,40.50
2022-12-11T07:23:51.047Z,42.73
2022-12-11T07:26:22.117Z,41.77
2022-12-11T07:28:51.431Z,42.77
2022-12-11T07:31:21.906Z,48.97
2022-12-11T07:33:54.676Z,42.40
2022-12-11T07:36:22.978Z,43.93
2022-12-11T07:38:50.834Z,45.87
2022-12-11T07:41:19.265Z,39.20
2022-12-11T07:43:55.906Z,38.80
2022-12-11T07:46:27.468Z,36.43
2022-12-11T07:48:55.683Z,45.10
2022-12-11T07:51:27.987Z,39.67
2022-12-11T07:53:58.535Z,39.47
2022-12-11T07:56:28.785Z,46.90
2022-12-11T07:59:00.271Z,43.67
2022-12-11T08:01:31.552Z,40.17
2022-12-11T08:03:59.454Z,42.93
2022-12-11T08:06:30.574Z,43.97
2022-12-11T08:09:01.726Z,44.70
2022-12-11T08:11:29.897Z,38.60
2022-12-11T08:14:00.009Z,48.43
2022-12-11T08:16:28.258Z,45.37
2022-12-11T08:18:56.069Z,47.30
2022-12-11T08:21:27.427Z,45.37
2022-12-11T08:23:55.708Z,43.70
2022-12-11T08:26:26.155Z,46.90
2022-12-11T08:28:55.085Z,41.43
2022-12-11T08:31:25.086Z,47.07
2022-12-11T08:33:54.766Z,50.53
2022-12-11T08:36:24.410Z,49.40
2022-12-11T08:38:54.301Z,42.97
2022-12-11T08:41:25.111Z,43.00
2022-12-11T08:43:54.934Z,45.90
2022-12-11T08:46:27.104Z,46.73
2022-12-11T08:48:55.995Z,47.50
2022-12-11T08:51:29.432Z,40.53
2022-12-11T08:54:01.962Z,44.63
2022-12-11T08:56:30.602Z,47.93
2022-12-11T08:59:00.931Z,44.43
2022-12-11T09:01:30.461Z,52.87
2022-12-11T09:03:58.617Z,50.77
2022-12-11T09:06:30.143Z,51.80
2022-12-11T09:09:00.396Z,49.73
2022-12-11T09:11:30.549Z,50.73
2022-12-11T09:14:03.547Z,44.23
2022-12-11T09:16:40.142Z,44.33
2022-12-11T09:19:13.878Z,49.70
2022-12-11T09:21:43.467Z,45.57
2022-12-11T09:24:12.750Z,52.93
2022-12-11T09:26:41.404Z,45.43
2022-12-11T09:29:11.838Z,46.13
2022-12-11T09:31:42.033Z,47.90
2022-12-11T09:34:13.122Z,52.07
2022-12-11T09:36:42.635Z,46.40
2022-12-11T09:39:12.631Z,48.20
2022-12-11T09:41:53.973Z,39.87
2022-12-11T09:44:37.389Z,49.10
2022-12-11T09:47:21.870Z,57.37
2022-12-11T09:49:58.195Z,46.60
2022-12-11T09:52:35.854Z,48.73
2022-12-11T09:55:14.819Z,49.13
2022-12-11T09:57:59.822Z,51.17
2022-12-11T10:00:39.860Z,53.67
2022-12-11T10:03:39.979Z,49.33
2022-12-11T10:06:21.559Z,48.03
2022-12-11T10:09:10.463Z,51.73
2022-12-11T10:11:56.969Z,54.70
2022-12-11T10:14:41.382Z,52.40
2022-12-11T10:17:15.987Z,51.77
2022-12-11T10:19:45.814Z,54.80
2022-12-11T10:22:22.724Z,52.77
2022-12-11T10:25:10.691Z,60.03
2022-12-11T10:27:41.093Z,53.20
2022-12-11T10:30:18.186Z,59.57
2022-12-11T10:32:53.803Z,52.40
2022-12-11T10:35:33.804Z,51.55
2022-12-11T10:38:15.035Z,61.77
2022-12-11T10:40:49.143Z,63.30
2022-12-11T10:43:17.603Z,55.43
2022-12-11T10:45:52.755Z,54.40
2022-12-11T10:48:22.178Z,61.57
2022-12-11T10:51:02.823Z,58.97
2022-12-11T10:53:33.449Z,52.30
2022-12-11T10:56:02.434Z,51.63
2022-12-11T10:58:34.089Z,59.40
2022-12-11T11:01:09.525Z,62.47
2022-12-11T11:03:55.316Z,58.75
2022-12-11T11:06:26.669Z,60.55
2022-12-11T11:08:57.646Z,62.47
2022-12-11T11:11:33.822Z,62.77
2022-12-11T11:14:14.780Z,63.23
2022-12-11T11:16:46.114Z,62.93
2022-12-11T11:19:23.723Z,63.20
2022-12-11T11:21:57.742Z,67.83
2022-12-11T11:24:34.989Z,60.00
2022-12-11T11:27:19.040Z,60.33
2022-12-11T11:29:52.823Z,66.90
2022-12-11T11:32:27.755Z,68.43
2022-12-11T11:35:17.452Z,63.90
2022-12-11T11:37:55.850Z,70.57
2022-12-11T11:40:28.728Z,73.83
2022-12-11T11:43:17.130Z,68.27
2022-12-11T11:45:53.698Z,66.93
2022-12-11T11:48:38.596Z,64.47
2022-12-11T11:51:19.689Z,73.23
2022-12-11T11:53:55.965Z,68.87
2022-12-11T11:56:27.841Z,70.33
2022-12-11T11:59:07.494Z,66.90
2022-12-11T12:01:35.453Z,72.67
2022-12-11T12:04:04.762Z,76.80
2022-12-11T12:06:54.415Z,73.67
2022-12-11T12:09:41.534Z,73.07
2022-12-11T12:12:26.496Z,68.97
2022-12-11T12:15:19.237Z,66.30
2022-12-11T12:17:55.939Z,64.23
2022-12-11T12:20:41.445Z,67.60
2022-12-11T12:23:38.502Z,69.63
2022-12-11T12:26:18.203Z,61.77
2022-12-11T12:29:02.498Z,60.80
2022-12-11T12:32:00.133Z,67.50
2022-12-11T12:34:49.873Z,65.67
2022-12-11T12:37:32.351Z,68.23
2022-12-11T12:40:15.139Z,63.50
2022-12-11T12:43:00.970Z,58.73
2022-12-11T12:45:40.926Z,56.92
2022-12-11T12:48:09.623Z,52.50
2022-12-11T12:50:42.498Z,43.47
2022-12-11T12:53:18.235Z,29.97
2022-12-11T12:55:48.515Z,26.92
2022-12-11T12:58:29.673Z,25.90
2022-12-11T13:01:09.434Z,29.50
2022-12-11T13:03:53.502Z,25.50
2022-12-11T13:06:37.127Z,28.83
2022-12-11T13:09:18.203Z,27.70
2022-12-11T13:11:50.137Z,27.73
2022-12-11T13:14:30.241Z,27.67
2022-12-11T13:17:26.100Z,26.60
2022-12-11T13:20:17.923Z,26.95
2022-12-11T13:23:16.775Z,28.27
2022-12-11T13:25:54.263Z,31.03
2022-12-11T13:28:32.364Z,30.63
2022-12-11T13:31:08.325Z,30.53
2022-12-11T13:33:45.869Z,31.90
2022-12-11T13:36:33.917Z,33.40
2022-12-11T13:39:08.475Z,33.90
2022-12-11T13:41:38.731Z,46.87
2022-12-11T13:44:16.173Z,30.77
2022-12-11T13:46:45.795Z,35.73
2022-12-11T13:49:24.603Z,35.53
2022-12-11T13:51:59.189Z,32.67
2022-12-11T13:54:29.621Z,31.80
2022-12-11T13:57:02.832Z,32.70
2022-12-11T13:59:35.155Z,31.90
2022-12-11T14:02:18.125Z,30.07
2022-12-11T14:04:49.696Z,34.10
2022-12-11T14:07:26.926Z,31.77
2022-12-11T14:10:02.216Z,29.83
2022-12-11T14:12:32.124Z,34.00
2022-12-11T14:15:05.118Z,34.17
2022-12-11T14:17:35.940Z,42.27
2022-12-11T14:20:07.584Z,37.73
2022-12-11T14:22:35.521Z,33.00
2022-12-11T14:25:22.655Z,37.80
2022-12-11T14:27:55.031Z,36.47
2022-12-11T14:30:26.435Z,33.70
2022-12-11T14:33:00.168Z,32.60
2022-12-11T14:35:38.410Z,35.33
2022-12-11T14:38:16.465Z,34.23
2022-12-11T14:40:51.688Z,36.87
2022-12-11T14:43:26.964Z,30.63
2022-12-11T14:46:01.376Z,31.02
2022-12-11T14:48:38.741Z,29.17
2022-12-11T14:51:14.951Z,32.77
2022-12-11T14:53:47.937Z,42.13
2022-12-11T14:56:21.001Z,39.73
2022-12-11T14:58:58.116Z,40.73
2022-12-11T15:01:29.294Z,36.73
2022-12-11T15:04:07.793Z,48.90
2022-12-11T15:06:44.693Z,39.33
2022-12-11T15:09:21.686Z,35.60
2022-12-11T15:11:51.711Z,37.30
2022-12-11T15:14:24.011Z,42.93
2022-12-11T15:16:57.447Z,37.17
2022-12-11T15:19:34.747Z,33.43
2022-12-11T15:22:05.971Z,35.23
2022-12-11T15:24:41.104Z,36.87
2022-12-11T15:27:26.299Z,38.92
2022-12-11T15:29:54.244Z,36.27
2022-12-11T15:32:22.788Z,36.87
2022-12-11T15:34:54.697Z,38.90
2022-12-11T15:37:26.557Z,39.20
2022-12-11T15:39:57.119Z,40.60
2022-12-11T15:42:29.093Z,36.33
2022-12-11T15:44:58.117Z,37.50
2022-12-11T15:47:28.948Z,37.53
2022-12-11T15:50:02.129Z,42.03
2022-12-11T15:52:30.113Z,44.83
2022-12-11T15:54:57.800Z,40.47
2022-12-11T15:57:25.861Z,56.43
2022-12-11T15:59:55.222Z,74.27
2022-12-11T16:02:24.307Z,61.97
2022-12-11T16:04:52.176Z,40.00
2022-12-11T16:07:24.784Z,38.37
2022-12-11T16:09:53.508Z,38.27
2022-12-11T16:12:21.278Z,36.57
2022-12-11T16:14:49.009Z,37.03
2022-12-11T16:17:17.438Z,43.10
2022-12-11T16:19:45.837Z,43.70
2022-12-11T16:22:14.441Z,48.90
2022-12-11T16:24:43.551Z,46.70
2022-12-11T16:27:11.388Z,42.93
2022-12-11T16:29:41.420Z,41.13
2022-12-11T16:32:09.899Z,44.40
2022-12-11T16:34:38.557Z,42.70
2022-12-11T16:37:08.825Z,41.70
2022-12-11T16:39:38.552Z,41.20
2022-12-11T16:42:08.592Z,37.83
2022-12-11T16:44:40.909Z,38.13
2022-12-11T16:47:10.278Z,42.90
2022-12-11T16:49:38.105Z,39.63
2022-12-11T16:52:05.809Z,35.67
2022-12-11T16:54:34.054Z,36.67
2022-12-11T16:57:02.305Z,38.00
2022-12-11T16:59:36.848Z,36.37
2022-12-11T17:02:05.406Z,37.78
2022-12-11T17:04:33.156Z,36.90
2022-12-11T17:07:01.007Z,41.30
2022-12-11T17:09:28.960Z,36.73
2022-12-11T17:11:57.505Z,37.57
2022-12-11T17:14:25.353Z,37.47
2022-12-11T17:16:55.584Z,37.17
2022-12-11T17:19:24.002Z,35.77
2022-12-11T17:21:53.973Z,39.10
2022-12-11T17:24:22.358Z,40.73
2022-12-11T17:26:50.137Z,40.37
2022-12-11T17:29:18.021Z,39.73
2022-12-11T17:31:46.063Z,41.03
2022-12-11T17:34:15.981Z,40.93
2022-12-11T17:36:43.915Z,39.77
2022-12-11T17:39:11.767Z,38.80
2022-12-11T17:41:39.874Z,40.73
2022-12-11T17:44:07.727Z,39.37
2022-12-11T17:46:35.415Z,43.90
2022-12-11T17:49:03.775Z,35.30
2022-12-11T17:51:32.825Z,40.43
2022-12-11T17:54:00.828Z,43.27
2022-12-11T17:56:28.624Z,41.13
2022-12-11T17:58:58.201Z,40.20
2022-12-11T18:01:26.196Z,42.77
2022-12-11T18:03:55.674Z,39.73
2022-12-11T18:06:23.828Z,42.67
2022-12-11T18:08:53.248Z,42.03
2022-12-11T18:11:22.722Z,41.40
2022-12-11T18:13:52.826Z,43.37
2022-12-11T18:16:24.474Z,42.53
2022-12-11T18:18:54.290Z,40.57
2022-12-11T18:21:26.056Z,36.57
2022-12-11T18:23:55.760Z,43.97
2022-12-11T18:26:24.122Z,42.40
2022-12-11T18:28:52.975Z,42.13
2022-12-11T18:31:22.628Z,43.50
2022-12-11T18:33:51.132Z,41.50
2022-12-11T18:36:20.658Z,39.97
2022-12-11T18:38:48.809Z,43.50
2022-12-11T18:41:20.229Z,44.10
2022-12-11T18:43:48.210Z,44.27
2022-12-11T18:46:21.432Z,43.03
2022-12-11T18:48:50.593Z,46.37
2022-12-11T18:51:23.967Z,46.77
2022-12-11T18:53:53.426Z,46.73
2022-12-11T18:56:24.483Z,48.97
2022-12-11T18:58:52.393Z,46.37
2022-12-11T19:01:23.336Z,47.00
2022-12-11T19:03:58.897Z,49.33
2022-12-11T19:06:33.227Z,51.87
2022-12-11T19:09:03.146Z,52.60
2022-12-11T19:11:34.945Z,49.93
2022-12-11T19:14:05.465Z,50.67
2022-12-11T19:16:36.680Z,57.97
2022-12-11T19:19:09.798Z,52.00
2022-12-11T19:21:39.877Z,48.20
2022-12-11T19:24:12.211Z,46.77
2022-12-11T19:26:42.103Z,53.60
2022-12-11T19:29:21.105Z,50.10
2022-12-11T19:31:49.569Z,56.37
2022-12-11T19:34:17.776Z,52.13
2022-12-11T19:36:45.743Z,53.97
2022-12-11T19:39:16.537Z,52.97
2022-12-11T19:41:46.184Z,50.27
2022-12-11T19:44:14.170Z,55.27
2022-12-11T19:46:41.995Z,57.20
2022-12-11T19:49:11.934Z,53.77
2022-12-11T19:51:42.292Z,60.70
2022-12-11T19:54:15.813Z,53.63
2022-12-11T19:56:45.517Z,53.70
2022-12-11T19:59:17.654Z,58.57
2022-12-11T20:01:48.248Z,55.23
2022-12-11T20:04:32.018Z,56.83
2022-12-11T20:07:00.124Z,58.57
2022-12-11T20:09:28.293Z,61.67
2022-12-11T20:11:57.826Z,57.80
2022-12-11T20:14:26.740Z,58.37
2022-12-11T20:17:13.763Z,62.20
2022-12-11T20:19:43.000Z,59.60
2022-12-11T20:22:11.319Z,59.93
2022-12-11T20:24:39.515Z,58.57
2022-12-11T20:27:09.584Z,59.00
2022-12-11T20:29:38.772Z,65.40
2022-12-11T20:32:07.277Z,62.13
2022-12-11T20:34:35.391Z,58.80
2022-12-11T20:37:03.428Z,60.63
2022-12-11T20:39:31.999Z,66.73
2022-12-11T20:42:01.002Z,60.53
2022-12-11T20:44:30.142Z,66.57
2022-12-11T20:46:57.862Z,65.03
2022-12-11T20:49:25.737Z,68.80
2022-12-11T20:51:53.901Z,61.60
2022-12-11T20:54:21.724Z,60.60
2022-12-11T20:56:49.590Z,61.13
2022-12-11T20:59:18.711Z,64.97
2022-12-11T21:01:47.909Z,65.87
2022-12-11T21:04:15.850Z,67.97
2022-12-11T21:06:44.047Z,68.80
2022-12-11T21:09:14.986Z,67.77
2022-12-11T21:11:42.818Z,63.90
2022-12-11T21:14:10.748Z,68.00
2022-12-11T21:16:38.683Z,64.57
2022-12-11T21:19:11.274Z,69.30
2022-12-11T21:21:45.052Z,65.13
2022-12-11T21:24:17.249Z,66.33
2022-12-11T21:26:46.486Z,66.30
2022-12-11T21:29:15.053Z,62.30
2022-12-11T21:31:43.800Z,64.57
2022-12-11T21:34:13.923Z,71.30
2022-12-11T21:36:41.744Z,65.77
2022-12-11T21:39:09.705Z,66.37
2022-12-11T21:41:38.163Z,70.57
2022-12-11T21:46:54.090Z,58.70
2022-12-11T21:49:23.210Z,58.37
2022-12-11T21:51:51.029Z,59.00
2022-12-11T21:54:19.308Z,59.17
2022-12-11T21:56:47.453Z,63.53
2022-12-11T21:59:15.472Z,61.00
2022-12-11T22:01:46.114Z,65.57
2022-12-11T22:04:15.832Z,63.00
2022-12-11T22:06:46.950Z,59.07
2022-12-11T22:09:15.927Z,63.53
2022-12-11T22:11:45.901Z,62.33
2022-12-11T22:14:17.441Z,68.93
2022-12-11T22:16:46.046Z,64.07
2022-12-11T22:19:14.001Z,63.57
2022-12-11T22:21:42.216Z,68.10
2022-12-11T22:24:11.371Z,68.70
2022-12-11T22:26:39.585Z,69.20
2022-12-11T22:29:07.703Z,61.33
2022-12-11T22:31:35.521Z,66.20
2022-12-11T22:34:03.268Z,64.30
2022-12-11T22:36:31.071Z,65.67
2022-12-11T22:39:00.176Z,65.67
2022-12-11T22:41:31.539Z,59.23
2022-12-11T22:44:00.431Z,66.87
2022-12-11T22:46:30.963Z,69.27
2022-12-11T22:48:59.290Z,63.53
2022-12-11T22:51:27.345Z,70.27
2022-12-11T22:53:55.101Z,68.07
2022-12-11T22:56:22.830Z,69.37
2022-12-11T22:58:51.956Z,61.70
2022-12-11T23:01:23.143Z,69.73
2022-12-11T23:03:51.396Z,65.83
2022-12-11T23:06:22.834Z,63.83
2022-12-11T23:08:51.332Z,62.33
2022-12-11T23:11:25.654Z,71.73
2022-12-11T23:13:56.276Z,63.80
2022-12-11T23:16:26.548Z,69.93
2022-12-11T23:18:56.097Z,73.50
2022-12-11T23:21:26.711Z,64.17
2022-12-11T23:23:55.458Z,70.50
2022-12-11T23:26:24.240Z,66.53
2022-12-11T23:28:52.665Z,73.97
2022-12-11T23:31:23.293Z,73.80
2022-12-11T23:33:51.429Z,71.17
2022-12-11T23:36:21.453Z,70.67
2022-12-11T23:38:54.373Z,69.60
2022-12-11T23:41:23.324Z,70.57
2022-12-11T23:43:51.401Z,68.10
2022-12-11T23:46:24.109Z,69.43
2022-12-11T23:48:52.865Z,69.63
2022-12-11T23:51:23.112Z,69.87
2022-12-11T23:53:52.016Z,70.33
2022-12-11T23:56:24.136Z,68.27
2022-12-11T23:58:53.641Z,71.20
